KCHO/CHO METAR and TAF weather

Enter ICAO airport designator
Station Type Date Time Source
KCHO METAR 2018/12/10 18:53 UTC NOAA

KCHO 101853Z 08004KT 10SM CLR 03/M06 A3010 RMK AO2 SLP195 T00281056


Station Type Date Time Source
KCHO Decoded METAR 2018/12/10 18:53 UTC NOAA

CHARLOTTESVILLE-ALBEMARLE, VA, United States (KCHO) 38-08N 078-27W 192M
Dec 10, 2018 - 01:53 PM EST / 2018.12.10 1853 UTC
Wind: from the E (080 degrees) at 5 MPH (4 KT):0
Visibility: 10 mile(s):0
Sky conditions: clear
Temperature: 37.0 F (2.8 C)
Dew Point: 21.9 F (-5.6 C)
Relative Humidity: 53%
Pressure (altimeter): 30.1 in. Hg (1019 hPa)
ob: KCHO 101853Z 08004KT 10SM CLR 03/M06 A3010 RMK AO2 SLP195 T00281056
cycle: 19

Station Type Date Time Source
KCHO TAF 2018/12/10 18:40 UTC NOAA

TAF KCHO 101738Z 1018/1118 05005KT P6SM BKN150
FM111700 23004KT P6SM SKC


Example: see airport list